createdAt,value
2022-12-25T00:02:19.825Z,2.05
2022-12-25T00:04:47.361Z,2.53
2022-12-25T00:07:16.154Z,1.98
2022-12-25T00:12:11.032Z,1.55
2022-12-25T00:14:40.706Z,1.80
2022-12-25T00:17:08.163Z,1.63
2022-12-25T00:19:35.625Z,1.70
2022-12-25T00:22:03.102Z,1.52
2022-12-25T00:24:31.895Z,2.22
2022-12-25T00:29:26.723Z,1.42
2022-12-25T00:31:54.271Z,1.90
2022-12-25T00:34:21.864Z,1.55
2022-12-25T00:36:51.251Z,1.58
2022-12-25T00:39:18.783Z,2.33
2022-12-25T00:42:05.401Z,1.95
2022-12-25T00:44:33.101Z,2.40
2022-12-25T00:47:00.699Z,1.95
2022-12-25T00:49:28.258Z,2.15
2022-12-25T00:51:55.847Z,1.83
2022-12-25T00:54:23.313Z,1.42
2022-12-25T00:56:52.155Z,1.73
2022-12-25T00:59:19.626Z,2.42
2022-12-25T01:01:47.338Z,1.55
2022-12-25T01:04:14.945Z,1.55
2022-12-25T01:06:42.457Z,1.80
2022-12-25T01:09:26.895Z,1.63
2022-12-25T01:11:58.599Z,1.50
2022-12-25T01:14:26.071Z,1.70
2022-12-25T01:16:53.598Z,1.65
2022-12-25T01:19:21.099Z,1.60
2022-12-25T01:21:48.564Z,1.75
2022-12-25T01:24:16.017Z,1.42
2022-12-25T01:26:43.449Z,1.73
2022-12-25T01:29:12.258Z,2.70
2022-12-25T01:31:39.763Z,1.67
2022-12-25T01:34:07.255Z,1.45
2022-12-25T01:36:34.722Z,1.42
2022-12-25T01:39:02.182Z,1.85
2022-12-25T01:41:29.671Z,1.90
2022-12-25T01:44:00.594Z,2.20
2022-12-25T01:46:29.784Z,1.90
2022-12-25T01:48:59.966Z,2.10
2022-12-25T01:51:31.157Z,1.83
2022-12-25T01:54:03.101Z,1.70
2022-12-25T01:56:31.281Z,1.95
2022-12-25T01:59:00.177Z,2.28
2022-12-25T02:01:29.205Z,1.48
2022-12-25T02:04:03.589Z,1.42
2022-12-25T02:06:31.571Z,1.42
2022-12-25T02:09:00.048Z,1.67
2022-12-25T02:11:45.413Z,1.83
2022-12-25T02:14:13.008Z,1.40
2022-12-25T02:16:58.174Z,1.80
2022-12-25T02:19:38.179Z,1.52
2022-12-25T02:22:23.999Z,1.85
2022-12-25T02:25:05.177Z,1.38
2022-12-25T02:27:50.360Z,1.50
2022-12-25T02:30:18.098Z,1.75
2022-12-25T02:32:51.665Z,1.80
2022-12-25T02:35:25.076Z,2.05
2022-12-25T02:37:56.547Z,2.22
2022-12-25T02:40:27.645Z,2.58
2022-12-25T02:43:17.881Z,2.80
2022-12-25T02:46:07.714Z,2.33
2022-12-25T02:48:56.092Z,3.10
2022-12-25T02:51:46.220Z,2.58
2022-12-25T02:54:35.200Z,2.25
2022-12-25T02:57:23.842Z,2.70
2022-12-25T03:00:14.445Z,2.58
2022-12-25T03:03:01.911Z,2.75
2022-12-25T03:05:50.271Z,2.80
2022-12-25T03:08:25.451Z,2.50
2022-12-25T03:11:16.126Z,2.00
2022-12-25T03:13:46.309Z,2.60
2022-12-25T03:16:32.704Z,2.40
2022-12-25T03:19:00.861Z,2.78
2022-12-25T03:21:42.613Z,2.28
2022-12-25T03:24:28.086Z,2.03
2022-12-25T03:26:58.284Z,2.30
2022-12-25T03:29:45.147Z,2.72
2022-12-25T03:32:23.787Z,2.13
2022-12-25T03:35:18.615Z,2.47
2022-12-25T03:38:15.122Z,2.22
2022-12-25T03:41:11.936Z,2.55
2022-12-25T03:44:06.668Z,1.95
2022-12-25T03:46:56.355Z,2.42
2022-12-25T03:49:48.815Z,2.53
2022-12-25T03:52:37.591Z,2.20
2022-12-25T03:55:27.878Z,2.20
2022-12-25T03:58:13.155Z,2.50
2022-12-25T04:00:58.545Z,2.22
2022-12-25T04:03:43.989Z,2.33
2022-12-25T04:06:30.800Z,1.70
2022-12-25T04:09:16.060Z,2.22
2022-12-25T04:12:03.473Z,2.55
2022-12-25T04:14:48.667Z,2.28
2022-12-25T04:17:33.901Z,2.05
2022-12-25T04:20:19.167Z,2.03
2022-12-25T04:23:05.616Z,1.90
2022-12-25T04:25:50.957Z,1.75
2022-12-25T04:28:36.339Z,1.83
2022-12-25T04:31:21.778Z,1.77
2022-12-25T04:34:06.997Z,2.38
2022-12-25T04:36:34.523Z,2.67
2022-12-25T04:39:03.481Z,1.95
2022-12-25T04:41:30.975Z,2.45
2022-12-25T04:43:58.560Z,2.00
2022-12-25T04:46:26.087Z,2.00
2022-12-25T04:48:53.581Z,2.38
2022-12-25T04:51:22.734Z,2.22
2022-12-25T04:53:51.270Z,1.90
2022-12-25T04:56:21.589Z,1.95
2022-12-25T04:58:49.872Z,2.03
2022-12-25T05:01:17.919Z,1.90
2022-12-25T05:03:45.560Z,1.85
2022-12-25T05:06:13.868Z,2.35
2022-12-25T05:08:41.422Z,2.47
2022-12-25T05:11:10.200Z,1.85
2022-12-25T05:16:08.121Z,1.90
2022-12-25T05:18:36.393Z,2.33
2022-12-25T05:21:04.363Z,1.95
2022-12-25T05:23:32.151Z,1.83
2022-12-25T05:25:59.623Z,2.08
2022-12-25T05:28:27.087Z,1.67
2022-12-25T05:30:58.469Z,2.50
2022-12-25T05:33:26.013Z,1.65
2022-12-25T05:35:53.463Z,2.15
2022-12-25T05:38:20.995Z,1.65
2022-12-25T05:40:48.462Z,2.03
2022-12-25T05:43:15.922Z,2.05
2022-12-25T05:45:43.401Z,1.90
2022-12-25T05:48:12.282Z,1.77
2022-12-25T05:53:08.987Z,1.80
2022-12-25T05:55:37.197Z,2.25
2022-12-25T05:58:05.497Z,1.40
2022-12-25T06:00:33.251Z,1.75
2022-12-25T06:03:01.330Z,2.03
2022-12-25T06:05:32.847Z,2.13
2022-12-25T06:08:00.311Z,1.77
2022-12-25T06:10:27.734Z,1.83
2022-12-25T06:12:55.529Z,1.55
2022-12-25T06:15:22.969Z,1.83
2022-12-25T06:17:50.408Z,1.75
2022-12-25T06:20:17.906Z,1.50
2022-12-25T06:22:46.782Z,1.35
2022-12-25T06:25:14.300Z,1.58
2022-12-25T06:27:41.797Z,1.52
2022-12-25T06:30:10.737Z,1.63
2022-12-25T06:32:38.276Z,1.35
2022-12-25T06:35:06.952Z,1.92
2022-12-25T06:37:34.387Z,1.70
2022-12-25T06:40:05.712Z,1.92
2022-12-25T06:42:33.183Z,1.90
2022-12-25T06:45:00.632Z,2.20
2022-12-25T06:47:28.085Z,1.85
2022-12-25T06:49:55.757Z,1.60
2022-12-25T06:52:23.217Z,1.60
2022-12-25T06:54:50.653Z,2.35
2022-12-25T06:57:19.727Z,1.90
2022-12-25T06:59:52.974Z,1.70
2022-12-25T07:02:24.801Z,2.22
2022-12-25T07:04:53.504Z,1.35
2022-12-25T07:07:22.122Z,1.92
2022-12-25T07:09:49.597Z,1.20
2022-12-25T07:12:20.721Z,1.77
2022-12-25T07:14:51.923Z,1.50
2022-12-25T07:17:21.118Z,1.85
2022-12-25T07:19:48.593Z,1.48
2022-12-25T07:22:16.835Z,1.58
2022-12-25T07:24:44.508Z,2.58
2022-12-25T07:27:12.183Z,2.20
2022-12-25T07:29:41.021Z,1.88
2022-12-25T07:37:03.279Z,1.85
2022-12-25T07:39:31.025Z,1.67
2022-12-25T07:41:58.542Z,2.33
2022-12-25T07:44:26.195Z,1.75
2022-12-25T07:46:55.074Z,1.95
2022-12-25T07:51:49.980Z,2.00
2022-12-25T07:54:17.594Z,2.38
2022-12-25T07:56:45.355Z,5.82
2022-12-25T07:59:12.939Z,2.25
2022-12-25T08:01:40.635Z,2.75
2022-12-25T08:04:11.573Z,2.47
2022-12-25T08:06:39.270Z,2.33
2022-12-25T08:09:09.006Z,2.92
2022-12-25T08:11:36.714Z,2.80
2022-12-25T08:14:07.023Z,2.70
2022-12-25T08:16:34.791Z,2.25
2022-12-25T08:19:02.342Z,2.08
2022-12-25T08:21:31.154Z,1.90
2022-12-25T08:26:25.985Z,2.17
2022-12-25T08:28:53.440Z,1.83
2022-12-25T08:31:23.592Z,2.70
2022-12-25T08:33:53.591Z,2.20
2022-12-25T08:36:21.244Z,2.60
2022-12-25T08:38:50.350Z,2.15
2022-12-25T08:41:18.805Z,2.53
2022-12-25T08:43:46.695Z,2.33
2022-12-25T08:46:14.323Z,2.67
2022-12-25T08:48:42.922Z,2.17
2022-12-25T08:51:14.373Z,2.90
2022-12-25T08:53:42.111Z,2.90
2022-12-25T08:56:11.313Z,3.80
2022-12-25T08:58:38.857Z,3.15
2022-12-25T09:01:06.928Z,2.65
2022-12-25T09:03:35.076Z,2.70
2022-12-25T09:06:04.276Z,2.05
2022-12-25T09:08:31.828Z,2.97
2022-12-25T09:11:02.987Z,2.45
2022-12-25T09:13:32.217Z,2.70
2022-12-25T09:15:59.752Z,2.58
2022-12-25T09:18:27.474Z,2.90
2022-12-25T09:21:02.301Z,2.72
2022-12-25T09:23:30.110Z,2.08
2022-12-25T09:26:02.548Z,2.05
2022-12-25T09:28:30.079Z,2.35
2022-12-25T09:30:59.112Z,2.70
2022-12-25T09:33:27.011Z,1.95
2022-12-25T09:35:55.911Z,2.38
2022-12-25T09:38:23.969Z,2.65
2022-12-25T09:40:59.452Z,2.33
2022-12-25T09:43:28.976Z,2.95
2022-12-25T09:46:00.389Z,3.15
2022-12-25T09:48:31.425Z,3.20
2022-12-25T09:51:04.150Z,1.35
2022-12-25T09:53:38.702Z,1.85
2022-12-25T09:56:11.488Z,1.98
2022-12-25T09:58:39.139Z,2.33
2022-12-25T10:01:17.832Z,1.58
2022-12-25T10:04:02.843Z,1.98
2022-12-25T10:06:43.930Z,1.95
2022-12-25T10:12:06.784Z,1.48
2022-12-25T10:14:40.817Z,2.78
2022-12-25T10:17:27.035Z,1.70
2022-12-25T10:20:04.097Z,1.00
2022-12-25T10:22:36.916Z,2.15
2022-12-25T10:25:06.825Z,1.63
2022-12-25T10:27:41.221Z,1.10
2022-12-25T10:30:15.957Z,2.05
2022-12-25T10:32:46.359Z,1.65
2022-12-25T10:35:15.330Z,1.17
2022-12-25T10:37:45.737Z,1.92
2022-12-25T10:40:30.758Z,2.08
2022-12-25T10:43:06.251Z,1.25
2022-12-25T10:45:43.963Z,2.55
2022-12-25T10:48:21.399Z,1.60
2022-12-25T10:50:49.304Z,2.25
2022-12-25T10:53:22.035Z,1.65
2022-12-25T10:56:01.473Z,1.85
2022-12-25T10:58:30.058Z,2.40
2022-12-25T11:01:00.245Z,2.58
2022-12-25T11:03:32.159Z,2.10
2022-12-25T11:06:00.158Z,2.15
2022-12-25T11:08:30.486Z,1.63
2022-12-25T11:11:05.887Z,2.45
2022-12-25T11:13:35.844Z,1.83
2022-12-25T11:16:07.026Z,0.63
2022-12-25T11:18:44.840Z,2.45
2022-12-25T11:21:25.266Z,1.48
2022-12-25T11:23:59.061Z,1.30
2022-12-25T11:26:28.512Z,2.00
2022-12-25T11:29:00.083Z,1.80
2022-12-25T11:31:36.551Z,2.03
2022-12-25T11:34:08.660Z,1.33
2022-12-25T11:36:45.214Z,1.63
2022-12-25T11:39:22.800Z,1.95
2022-12-25T11:41:54.713Z,2.10
2022-12-25T11:44:34.431Z,1.58
2022-12-25T11:47:12.680Z,0.80
2022-12-25T11:49:50.076Z,1.88
2022-12-25T11:52:20.330Z,1.45
2022-12-25T11:54:56.690Z,1.92
2022-12-25T11:57:25.265Z,1.42
2022-12-25T11:59:58.484Z,1.38
2022-12-25T12:02:34.007Z,1.85
2022-12-25T12:05:19.574Z,1.13
2022-12-25T12:07:58.328Z,1.65
2022-12-25T12:10:33.731Z,1.60
2022-12-25T12:13:21.040Z,0.77
2022-12-25T12:15:50.209Z,1.77
2022-12-25T12:18:24.089Z,1.48
2022-12-25T12:21:05.378Z,1.75
2022-12-25T12:23:36.880Z,0.98
2022-12-25T12:26:05.560Z,1.48
2022-12-25T12:33:39.099Z,1.60
2022-12-25T12:36:12.611Z,1.60
2022-12-25T12:38:43.346Z,0.90
2022-12-25T12:41:13.739Z,1.67
2022-12-25T12:43:44.338Z,1.80
2022-12-25T12:46:26.200Z,1.23
2022-12-25T12:49:10.123Z,1.40
2022-12-25T12:51:39.341Z,0.90
2022-12-25T12:54:20.317Z,1.60
2022-12-25T12:59:40.930Z,0.90
2022-12-25T13:02:27.377Z,1.40
2022-12-25T13:05:00.559Z,1.40
2022-12-25T13:07:49.539Z,0.95
2022-12-25T13:10:26.710Z,1.20
2022-12-25T13:12:56.029Z,1.33
2022-12-25T13:15:27.956Z,1.40
2022-12-25T13:18:00.314Z,1.42
2022-12-25T13:20:39.663Z,1.45
2022-12-25T13:23:25.948Z,1.20
2022-12-25T13:25:54.730Z,1.38
2022-12-25T13:30:53.663Z,1.05
2022-12-25T13:33:21.201Z,0.93
2022-12-25T13:35:48.857Z,1.40
2022-12-25T13:38:18.822Z,1.25
2022-12-25T13:41:12.124Z,1.20
2022-12-25T13:43:43.209Z,1.13
2022-12-25T13:46:13.646Z,1.20
2022-12-25T13:48:41.267Z,1.10
2022-12-25T13:51:16.590Z,0.90
2022-12-25T13:53:45.509Z,1.50
2022-12-25T13:56:15.937Z,1.40
2022-12-25T13:58:45.441Z,1.23
2022-12-25T14:01:31.927Z,1.40
2022-12-25T14:04:00.532Z,1.30
2022-12-25T14:06:29.920Z,1.20
2022-12-25T14:09:00.909Z,1.38
2022-12-25T14:11:30.397Z,1.02
2022-12-25T14:14:00.729Z,0.93
2022-12-25T14:16:29.046Z,1.95
2022-12-25T14:18:59.037Z,2.13
2022-12-25T14:21:30.844Z,5.20
2022-12-25T14:24:00.484Z,1.65
2022-12-25T14:26:30.374Z,3.42
2022-12-25T14:29:15.344Z,5.80
2022-12-25T14:31:46.300Z,1.50
2022-12-25T14:34:18.658Z,1.48
2022-12-25T14:36:46.485Z,1.50
2022-12-25T14:39:28.267Z,1.67
2022-12-25T14:41:55.926Z,1.40
2022-12-25T14:44:32.115Z,1.38
2022-12-25T14:47:14.631Z,1.70
2022-12-25T14:49:42.202Z,2.72
2022-12-25T14:52:17.815Z,2.33
2022-12-25T14:54:49.212Z,1.65
2022-12-25T14:57:26.982Z,1.45
2022-12-25T14:59:59.842Z,1.42
2022-12-25T15:02:27.598Z,2.30
2022-12-25T15:04:55.307Z,2.08
2022-12-25T15:07:27.546Z,2.47
2022-12-25T15:10:36.745Z,2.40
2022-12-25T15:15:15.630Z,1.45
2022-12-25T15:17:43.177Z,1.52
2022-12-25T15:20:16.059Z,1.50
2022-12-25T15:23:10.161Z,1.58
2022-12-25T15:25:32.977Z,1.55
2022-12-25T15:28:00.455Z,1.60
2022-12-25T15:30:28.053Z,1.75
2022-12-25T15:32:55.595Z,1.40
2022-12-25T15:35:23.321Z,1.55
2022-12-25T15:37:50.793Z,1.90
2022-12-25T15:40:19.653Z,1.80
2022-12-25T15:42:49.899Z,1.52
2022-12-25T15:45:21.304Z,2.92
2022-12-25T15:47:49.119Z,1.40
2022-12-25T15:50:18.672Z,1.90
2022-12-25T15:52:46.905Z,1.42
2022-12-25T15:55:15.373Z,2.10
2022-12-25T15:57:44.577Z,1.70
2022-12-25T16:00:22.510Z,2.17
2022-12-25T16:02:50.380Z,2.50
2022-12-25T16:05:18.111Z,2.40
2022-12-25T16:07:45.538Z,2.78
2022-12-25T16:10:16.818Z,2.10
2022-12-25T16:12:45.215Z,2.03
2022-12-25T16:15:14.502Z,2.30
2022-12-25T16:17:43.504Z,1.70
2022-12-25T16:20:11.924Z,2.55
2022-12-25T16:22:42.217Z,1.80
2022-12-25T16:25:14.564Z,2.35
2022-12-25T16:27:42.176Z,2.15
2022-12-25T16:30:11.650Z,1.85
2022-12-25T16:32:39.137Z,2.03
2022-12-25T16:35:09.112Z,2.00
2022-12-25T16:37:36.669Z,1.95
2022-12-25T16:40:05.310Z,1.98
2022-12-25T16:42:35.079Z,1.70
2022-12-25T16:45:02.594Z,2.15
2022-12-25T16:47:30.773Z,2.13
2022-12-25T16:49:58.225Z,2.30
2022-12-25T16:52:27.120Z,3.05
2022-12-25T16:54:54.612Z,4.13
2022-12-25T16:57:22.082Z,2.53
2022-12-25T16:59:49.979Z,2.45
2022-12-25T17:02:19.410Z,1.70
2022-12-25T17:04:47.779Z,2.40
2022-12-25T17:07:17.054Z,2.05
2022-12-25T17:09:48.433Z,2.22
2022-12-25T17:12:16.505Z,2.15
2022-12-25T17:14:44.239Z,1.70
2022-12-25T17:17:11.725Z,2.10
2022-12-25T17:19:39.176Z,2.22
2022-12-25T17:22:07.267Z,2.00
2022-12-25T17:24:36.274Z,2.10
2022-12-25T17:27:08.404Z,1.85
2022-12-25T17:29:36.400Z,2.65
2022-12-25T17:32:04.010Z,2.33
2022-12-25T17:34:31.432Z,1.55
2022-12-25T17:36:58.887Z,1.88
2022-12-25T17:39:26.465Z,1.90
2022-12-25T17:41:53.927Z,2.58
2022-12-25T17:44:22.824Z,2.45
2022-12-25T17:46:51.106Z,2.97
2022-12-25T17:49:21.091Z,2.35
2022-12-25T17:51:49.187Z,3.17
2022-12-25T17:54:16.699Z,2.20
2022-12-25T17:56:44.205Z,2.20
2022-12-25T17:59:18.152Z,2.65
2022-12-25T18:01:48.904Z,2.05
2022-12-25T18:04:16.653Z,2.20
2022-12-25T18:06:44.139Z,2.95
2022-12-25T18:09:12.787Z,1.98
2022-12-25T18:11:44.321Z,3.13
2022-12-25T18:14:15.307Z,2.90
2022-12-25T18:16:44.880Z,2.42
2022-12-25T18:19:17.517Z,2.92
2022-12-25T18:21:45.002Z,2.80
2022-12-25T18:24:12.461Z,3.10
2022-12-25T18:26:40.154Z,2.58
2022-12-25T18:29:07.856Z,3.10
2022-12-25T18:31:35.827Z,3.15
2022-12-25T18:34:03.390Z,2.88
2022-12-25T18:36:32.290Z,2.38
2022-12-25T18:39:00.151Z,2.90
2022-12-25T18:41:30.140Z,2.78
2022-12-25T18:44:00.216Z,3.00
2022-12-25T18:46:28.410Z,2.53
2022-12-25T18:48:57.046Z,2.30
2022-12-25T18:51:27.528Z,2.50
2022-12-25T18:54:01.490Z,2.80
2022-12-25T18:56:28.958Z,2.53
2022-12-25T18:58:56.402Z,2.35
2022-12-25T19:01:26.092Z,2.13
2022-12-25T19:04:00.223Z,3.25
2022-12-25T19:06:33.055Z,2.92
2022-12-25T19:09:09.173Z,2.75
2022-12-25T19:11:42.039Z,2.30
2022-12-25T19:14:11.715Z,2.75
2022-12-25T19:16:39.383Z,2.95
2022-12-25T19:19:06.858Z,3.40
2022-12-25T19:21:34.305Z,2.42
2022-12-25T19:24:03.099Z,2.70
2022-12-25T19:26:30.653Z,2.75
2022-12-25T19:28:58.123Z,2.63
2022-12-25T19:31:25.719Z,2.65
2022-12-25T19:33:53.227Z,2.83
2022-12-25T19:36:21.091Z,2.45
2022-12-25T19:38:48.676Z,3.20
2022-12-25T19:41:19.580Z,3.50
2022-12-25T19:43:49.720Z,2.80
2022-12-25T19:46:20.947Z,2.83
2022-12-25T19:48:48.842Z,3.38
2022-12-25T19:51:17.979Z,3.42
2022-12-25T19:53:48.459Z,2.78
2022-12-25T19:56:17.545Z,2.80
2022-12-25T19:58:45.823Z,3.65
2022-12-25T20:01:17.198Z,3.08
2022-12-25T20:03:46.648Z,3.80
2022-12-25T20:06:18.633Z,3.60
2022-12-25T20:08:46.514Z,3.95
2022-12-25T20:11:13.981Z,3.90
2022-12-25T20:13:42.913Z,3.60
2022-12-25T20:16:10.867Z,3.38
2022-12-25T20:18:38.917Z,3.35
2022-12-25T20:21:09.260Z,2.72
2022-12-25T20:23:36.839Z,3.00
2022-12-25T20:26:05.769Z,3.42
2022-12-25T20:28:35.686Z,3.50
2022-12-25T20:31:08.251Z,3.03
2022-12-25T20:33:37.467Z,3.85
2022-12-25T20:36:06.058Z,2.92
2022-12-25T20:38:33.750Z,2.70
2022-12-25T20:41:26.375Z,3.33
2022-12-25T20:43:50.312Z,3.22
2022-12-25T20:46:19.331Z,3.55
2022-12-25T20:48:47.927Z,3.22
2022-12-25T20:51:17.602Z,3.15
2022-12-25T20:53:45.987Z,2.75
2022-12-25T20:56:15.955Z,3.28
2022-12-25T20:58:43.728Z,2.83
2022-12-25T21:01:14.523Z,2.65
2022-12-25T21:03:43.489Z,3.47
2022-12-25T21:06:11.516Z,3.47
2022-12-25T21:08:40.622Z,3.60
2022-12-25T21:11:09.146Z,2.92
2022-12-25T21:13:40.215Z,3.72
2022-12-25T21:16:09.629Z,4.13
2022-12-25T21:18:37.272Z,3.20
2022-12-25T21:21:07.745Z,3.25
2022-12-25T21:23:36.984Z,3.35
2022-12-25T21:26:11.562Z,3.30
2022-12-25T21:28:39.074Z,3.42
2022-12-25T21:31:07.746Z,1.35
2022-12-25T21:36:24.768Z,1.58
2022-12-25T21:38:57.608Z,1.25
2022-12-25T21:41:25.671Z,2.40
2022-12-25T21:43:53.556Z,2.90
2022-12-25T21:46:21.096Z,4.50
2022-12-25T21:48:49.120Z,6.50
2022-12-25T21:51:36.237Z,5.82
2022-12-25T21:56:43.592Z,5.05
2022-12-25T21:59:15.855Z,4.03
2022-12-25T22:01:44.357Z,3.03
2022-12-25T22:04:12.947Z,2.80
2022-12-25T22:06:58.096Z,3.03
2022-12-25T22:09:27.060Z,3.47
2022-12-25T22:12:12.402Z,3.08
2022-12-25T22:14:57.159Z,1.40
2022-12-25T22:17:44.188Z,2.90
2022-12-25T22:20:14.090Z,1.50
2022-12-25T22:22:41.572Z,2.30
2022-12-25T22:25:11.290Z,1.98
2022-12-25T22:27:40.383Z,1.95
2022-12-25T22:30:10.476Z,0.75
2022-12-25T22:32:38.050Z,2.40
2022-12-25T22:35:06.403Z,2.85
2022-12-25T22:37:33.928Z,3.95
2022-12-25T22:40:02.398Z,2.83
2022-12-25T22:42:31.434Z,3.15
2022-12-25T22:44:59.227Z,1.90
2022-12-25T22:47:26.712Z,1.67
2022-12-25T22:49:54.321Z,1.73
2022-12-25T22:52:21.988Z,2.30
2022-12-25T22:54:49.440Z,1.90
2022-12-25T22:57:16.976Z,1.95
2022-12-25T22:59:45.845Z,2.17
2022-12-25T23:02:13.540Z,2.70
2022-12-25T23:04:41.146Z,2.63
2022-12-25T23:07:08.642Z,2.00
2022-12-25T23:09:36.066Z,2.67
2022-12-25T23:12:03.625Z,1.85
2022-12-25T23:14:39.637Z,2.17
2022-12-25T23:17:30.813Z,1.88
2022-12-25T23:20:17.079Z,1.83
2022-12-25T23:23:02.303Z,2.30
2022-12-25T23:25:48.327Z,0.93
2022-12-25T23:28:35.852Z,2.00
2022-12-25T23:31:02.465Z,1.98
2022-12-25T23:33:31.427Z,1.55
2022-12-25T23:35:58.903Z,2.45
2022-12-25T23:38:26.380Z,1.95
2022-12-25T23:40:53.846Z,1.77
2022-12-25T23:43:21.296Z,1.60
2022-12-25T23:45:48.763Z,1.80
2022-12-25T23:48:16.344Z,1.70
2022-12-25T23:50:45.136Z,1.70
2022-12-25T23:55:42.120Z,1.83
2022-12-25T23:58:09.817Z,1.95
